Aérodrome :
LOGIN :

S'inscrire | Disclaimer

   EN    FR    IT 

 










Légende :    VFR   VFR Marginal   IFR   IFR Intensif   IFR Très Intensif
Visi : 
Plafond : 
>= 8 km
>= 3000ft
5 à 8 km
1000 à 3000 ft
1500m à 5 km
500 à 1000 ft
800 à 1500m
200 à 500 ft
< 800m
< 200 ft
Symboles :   Orages  Brouillard  Fortes neiges  Fortes précipitations  Vent > 20 kt
SIGMETs :   Divers  Orages  Givrage  Turbulence  Onde Orograph.  Cendres Volcan.






- Altitude de l'aérodrome : 20 ft


EBFN - Koksijde

DERNIER METAR :
  • 010625Z 16012KT 6000 BKN007 BKN030 14/13 Q0998 GRN GRN TEMPO YLO

METARs EXPIRÉS :
  • 010555Z 17012KT 6000 BKN007 BKN023 14/13 Q0998 GRN GRN TEMPO YLO
  • 010455Z 16012KT 8000 FEW009 BKN020 14/13 Q0999 WHT BLU TEMPO GRN
  • 010450Z 16011KT 8000 FEW009 BKN023 14/13 Q0999 WHT BLU TEMPO GRN
  • 010425Z AUTO 16012KT 9999 -RA SCT038/// OVC071/// 14/13 Q0999 BLU
  • 010355Z AUTO 16010KT 9999 FEW010/// BKN037/// OVC099/// 14/13 Q1000 BLU

TAF TAF EBFN
Valide du 01 à 07h jusqu'au 01 à 16h UTC


010541Z 0107/0116 26010KT 6000 -RA BKN010
TEMPO 0107/0109 4000 RA BKN007
BECMG 0107/0109 9999 NSW SCT060
TEMPO 0108/0116 4000 SHRA SCT015TCU
PROB30
TEMPO 0111/0116 26012G25KT 2000 TSRA BKN010CB



MET'MAP, la Météo Aéronautique d'un coup d'oeil ! - Copyright ORBIFLY Décembre 2007 - Disclaimer

ORBIFLY MET'MAP TEAM :

Programmation & Développement : Alexandra Zaïnal
Sur une idée originale de : Baudouin d'Aumeries
Assistance à la programmation : Marc-Olivier Méhu
Soutien technique & logistique : Manuel Goepfert

Contact : metmap@orbifly.com




SOURCES & CREDITS :

   NOAA